Flugplatz Lübeck-Blankensee (EDHL)

Hier findest Du alle Informationen zum Flugplatz Lübeck-Blankensee (EDHL).

Informationen für Piloten zum Flugplatz Lübeck-Blankensee

Hier findest Du alle relevanten Informationen, die Du als Pilot benötigst, um Lübeck-Blankensee anzufliegen.

Flugplatz: Lübeck-Blankensee ICAO-Code: EDHL
Frequenz Turm: 128,700 Mhz GAFOR Gebiet: 4
Frequenz Ground: 128,700 Mhz Mogas: nein
Platzrunde: N 0 ft Landegebühr: -
Platzhöhe: - Sunrise: 06:22 Uhr UTC
Pisten: 07/25 - 1.922 m x 60 m, ASPH Sunset: 16:39 Uhr UTC

Flugwetter am Flugplatz Lübeck-Blankensee

Die METAR Information stammen aus EDHL.

METAR Code:
2019/02/10 17:50
EDHL 101750Z 20009KT 9000 RA SCT010 SCT035 08/07 Q0984

Temperatur: 7,0 °C Niederschlag: - Wind: 8,9 kt
Temperatur (min.): 7,0 °C Luftdruck: 1027 hPa Windrichtung: 300 °
Temperatur (max.): 7,0 °C Luftfeuchtigkeit: 100 % Bewölkung: 8/8

Flugschulen am Flugplatz Lübeck-Blankensee

Am Flugplatz Lübeck-Blankensee gibt es 2 Flugschulen.

Benachbarte Flugplätze und Flugschulen

Es gibt 5 weitere Flugplätze in einem Umkreis von 50 km um den Flugplatz Lübeck-Blankensee.

Jetzt anmelden

Passwort vergessen

Umfrage Archiv

Welche Art von Theorieunterricht würde Dir am ehesten zusagen?

Frontalunterricht
64.1 %
Selbststudium
35.9 %
Stimmen: 315 | Diskussion
Anzeige: Roland Aircraft
Statistik Alle Mitglieder

Aktuell sind 37 Besucher online.

Anzeige: VFR Sprechfunk Simulator


Anzeige: Pocket FMS